createdAt,value
2023-03-31T00:00:13.382Z,56.78
2023-03-31T00:02:43.834Z,60.05
2023-03-31T00:05:19.596Z,56.00
2023-03-31T00:07:50.154Z,54.55
2023-03-31T00:10:23.139Z,46.08
2023-03-31T00:12:53.327Z,46.92
2023-03-31T00:15:23.498Z,45.75
2023-03-31T00:17:53.682Z,45.45
2023-03-31T00:20:24.283Z,44.85
2023-03-31T00:22:56.160Z,42.88
2023-03-31T00:25:26.669Z,46.72
2023-03-31T00:27:57.175Z,44.58
2023-03-31T00:30:27.365Z,50.22
2023-03-31T00:32:58.476Z,50.25
2023-03-31T00:35:29.497Z,49.67
2023-03-31T00:38:00.645Z,46.90
2023-03-31T00:40:30.748Z,46.42
2023-03-31T00:43:00.917Z,47.03
2023-03-31T00:45:33.356Z,45.30
2023-03-31T00:48:06.069Z,46.88
2023-03-31T00:50:38.398Z,44.97
2023-03-31T00:53:12.266Z,47.15
2023-03-31T00:55:46.119Z,47.95
2023-03-31T00:58:21.713Z,44.70
2023-03-31T01:00:54.540Z,47.00
2023-03-31T01:03:25.401Z,46.20
2023-03-31T01:05:57.855Z,48.05
2023-03-31T01:08:29.740Z,45.53
2023-03-31T01:11:02.331Z,45.33
2023-03-31T01:13:33.643Z,46.97
2023-03-31T01:16:04.453Z,47.85
2023-03-31T01:18:38.333Z,50.17
2023-03-31T01:21:32.152Z,44.53
2023-03-31T01:24:22.279Z,43.30
2023-03-31T01:30:29.235Z,44.60
2023-03-31T01:33:19.417Z,43.13
2023-03-31T01:39:11.798Z,44.22
2023-03-31T01:41:49.559Z,42.95
2023-03-31T01:44:39.356Z,42.92
2023-03-31T01:47:13.756Z,46.20
2023-03-31T01:49:55.500Z,47.03
2023-03-31T01:52:33.169Z,45.53
2023-03-31T01:55:15.318Z,43.63
2023-03-31T01:58:05.581Z,43.65
2023-03-31T02:00:38.916Z,44.05
2023-03-31T02:03:14.284Z,43.58
2023-03-31T02:05:48.659Z,45.08
2023-03-31T02:08:24.725Z,42.67
2023-03-31T02:10:55.797Z,42.60
2023-03-31T02:13:27.150Z,41.53
2023-03-31T02:16:05.768Z,40.53
2023-03-31T02:18:39.801Z,40.03
2023-03-31T02:21:13.854Z,41.00
2023-03-31T02:23:47.342Z,49.72
2023-03-31T02:26:21.860Z,54.22
2023-03-31T02:28:52.061Z,54.47
2023-03-31T02:31:42.458Z,40.67
2023-03-31T02:34:12.828Z,41.70
2023-03-31T02:36:44.359Z,39.85
2023-03-31T02:39:20.739Z,41.20
2023-03-31T02:41:51.132Z,42.67
2023-03-31T02:44:23.524Z,40.28
2023-03-31T02:46:55.474Z,40.45
2023-03-31T02:49:25.756Z,45.42
2023-03-31T02:52:16.123Z,41.05
2023-03-31T02:55:05.385Z,41.80
2023-03-31T02:57:50.719Z,46.75
2023-03-31T03:00:40.885Z,46.40
2023-03-31T03:03:30.973Z,40.75
2023-03-31T03:06:19.591Z,40.83
2023-03-31T03:09:08.569Z,39.45
2023-03-31T03:11:44.994Z,37.50
2023-03-31T03:14:34.709Z,38.90
2023-03-31T03:17:08.843Z,38.67
2023-03-31T03:19:39.006Z,37.75
2023-03-31T03:22:09.412Z,36.67
2023-03-31T03:24:41.407Z,38.70
2023-03-31T03:27:12.506Z,36.90
2023-03-31T03:29:43.225Z,39.80
2023-03-31T03:32:14.614Z,38.08
2023-03-31T03:34:45.509Z,41.72
2023-03-31T03:37:15.944Z,40.45
2023-03-31T03:39:46.184Z,41.67
2023-03-31T03:42:17.298Z,39.83
2023-03-31T03:44:47.738Z,42.97
2023-03-31T03:47:17.871Z,42.00
2023-03-31T03:49:50.080Z,39.83
2023-03-31T03:52:20.503Z,38.10
2023-03-31T03:54:50.867Z,39.67
2023-03-31T03:57:21.410Z,40.25
2023-03-31T03:59:52.233Z,40.20
2023-03-31T04:02:25.030Z,39.03
2023-03-31T04:04:57.239Z,39.25
2023-03-31T04:07:28.645Z,41.03
2023-03-31T04:09:58.772Z,38.60
2023-03-31T04:12:29.122Z,39.70
2023-03-31T04:14:59.201Z,38.65
2023-03-31T04:17:36.526Z,37.25
2023-03-31T04:20:10.476Z,38.20
2023-03-31T04:22:44.248Z,36.38
2023-03-31T04:25:18.194Z,38.15
2023-03-31T04:27:52.142Z,37.55
2023-03-31T04:30:26.334Z,36.42
2023-03-31T04:33:01.483Z,37.58
2023-03-31T04:35:52.927Z,36.22
2023-03-31T04:38:25.611Z,34.88
2023-03-31T04:40:56.462Z,34.95
2023-03-31T04:43:26.778Z,36.10
2023-03-31T04:45:58.034Z,36.67
2023-03-31T04:48:28.576Z,35.67
2023-03-31T04:50:58.768Z,35.90
2023-03-31T04:53:29.198Z,33.15
2023-03-31T04:55:59.541Z,33.30
2023-03-31T04:58:30.120Z,33.90
2023-03-31T05:01:01.016Z,32.95
2023-03-31T05:03:31.546Z,33.72
2023-03-31T05:06:01.771Z,30.60
2023-03-31T05:08:32.000Z,30.20
2023-03-31T05:11:02.512Z,29.00
2023-03-31T05:13:33.157Z,29.35
2023-03-31T05:16:09.630Z,28.35
2023-03-31T05:18:40.516Z,28.00
2023-03-31T05:21:15.111Z,26.48
2023-03-31T05:23:45.920Z,24.20
2023-03-31T05:26:16.626Z,25.90
2023-03-31T05:28:47.260Z,26.52
2023-03-31T05:31:17.649Z,26.90
2023-03-31T05:33:47.860Z,26.20
2023-03-31T05:36:19.675Z,26.05
2023-03-31T05:38:50.528Z,26.35
2023-03-31T05:41:21.268Z,24.50
2023-03-31T05:43:52.177Z,25.58
2023-03-31T05:46:22.488Z,27.17
2023-03-31T05:48:52.948Z,26.60
2023-03-31T05:51:23.201Z,26.25
2023-03-31T05:53:53.692Z,26.15
2023-03-31T05:56:24.663Z,24.45
2023-03-31T05:58:55.354Z,26.40
2023-03-31T06:01:26.643Z,28.00
2023-03-31T06:03:57.742Z,27.52
2023-03-31T06:06:28.150Z,27.23
2023-03-31T06:08:58.632Z,27.67
2023-03-31T06:11:28.993Z,26.52
2023-03-31T06:13:59.424Z,25.73
2023-03-31T06:16:30.540Z,25.40
2023-03-31T06:19:01.015Z,25.67
2023-03-31T06:21:31.463Z,23.88
2023-03-31T06:24:02.161Z,24.10
2023-03-31T06:26:33.157Z,25.15
2023-03-31T06:29:03.612Z,25.58
2023-03-31T06:31:33.752Z,24.52
2023-03-31T06:34:04.156Z,25.50
2023-03-31T06:36:34.401Z,24.33
2023-03-31T06:39:04.530Z,25.08
2023-03-31T06:41:35.321Z,24.73
2023-03-31T06:44:06.080Z,25.33
2023-03-31T06:46:36.540Z,26.15
2023-03-31T06:49:06.709Z,25.40
2023-03-31T06:51:37.384Z,24.65
2023-03-31T06:54:07.838Z,25.77
2023-03-31T06:56:38.042Z,25.35
2023-03-31T06:59:08.451Z,23.63
2023-03-31T07:01:40.627Z,23.23
2023-03-31T07:04:11.359Z,23.42
2023-03-31T07:06:41.771Z,22.35
2023-03-31T07:09:11.866Z,23.05
2023-03-31T07:11:42.680Z,21.92
2023-03-31T07:14:13.519Z,22.95
2023-03-31T07:16:44.030Z,21.13
2023-03-31T07:19:15.029Z,21.67
2023-03-31T07:21:45.484Z,22.85
2023-03-31T07:24:16.312Z,21.17
2023-03-31T07:26:46.516Z,20.35
2023-03-31T07:29:17.255Z,20.48
2023-03-31T07:31:50.020Z,21.40
2023-03-31T07:34:20.718Z,21.25
2023-03-31T07:36:51.361Z,21.42
2023-03-31T07:39:22.757Z,20.02
2023-03-31T07:41:53.249Z,20.08
2023-03-31T07:44:24.926Z,20.00
2023-03-31T07:46:55.103Z,20.02
2023-03-31T07:49:25.908Z,19.58
2023-03-31T07:51:56.365Z,19.65
2023-03-31T07:54:26.969Z,20.23
2023-03-31T07:56:57.625Z,18.42
2023-03-31T07:59:27.771Z,20.60
2023-03-31T08:01:58.136Z,19.65
2023-03-31T08:04:28.900Z,19.00
2023-03-31T08:06:59.701Z,20.95
2023-03-31T08:09:30.090Z,22.55
2023-03-31T08:12:00.818Z,19.10
2023-03-31T08:14:40.790Z,19.15
2023-03-31T08:17:12.518Z,23.88
2023-03-31T08:19:42.846Z,24.70
2023-03-31T08:22:13.368Z,25.30
2023-03-31T08:24:43.720Z,25.98
2023-03-31T08:27:14.203Z,24.80
2023-03-31T08:29:44.596Z,25.15
2023-03-31T08:32:15.083Z,24.27
2023-03-31T08:34:47.556Z,24.30
2023-03-31T08:37:18.043Z,25.17
2023-03-31T08:39:48.376Z,23.30
2023-03-31T08:42:21.645Z,23.50
2023-03-31T08:45:00.845Z,23.98
2023-03-31T08:47:32.946Z,23.45
2023-03-31T08:50:07.945Z,24.98
2023-03-31T08:52:42.753Z,30.02
2023-03-31T08:55:22.967Z,25.92
2023-03-31T08:57:58.434Z,25.02
2023-03-31T09:00:29.033Z,24.55
2023-03-31T09:03:05.780Z,24.77
2023-03-31T09:05:57.310Z,25.33
2023-03-31T09:08:35.869Z,27.42
2023-03-31T09:11:25.568Z,24.20
2023-03-31T09:14:02.870Z,23.80
2023-03-31T09:16:52.905Z,22.08
2023-03-31T09:19:33.157Z,22.80
2023-03-31T09:22:03.937Z,25.35
2023-03-31T09:24:36.058Z,23.65
2023-03-31T09:27:08.327Z,23.75
2023-03-31T09:29:54.852Z,24.40
2023-03-31T09:32:30.758Z,24.90
2023-03-31T09:35:20.860Z,24.00
2023-03-31T09:37:52.212Z,23.02
2023-03-31T09:40:24.825Z,23.17
2023-03-31T09:43:03.002Z,23.73
2023-03-31T09:45:35.529Z,23.00
2023-03-31T09:48:08.559Z,24.23
2023-03-31T09:50:48.027Z,23.70
2023-03-31T09:53:22.024Z,23.63
2023-03-31T09:55:58.511Z,24.08
2023-03-31T09:58:29.353Z,26.60
2023-03-31T10:01:07.900Z,24.85
2023-03-31T10:03:52.864Z,22.42
2023-03-31T10:06:24.638Z,25.40
2023-03-31T10:08:59.137Z,24.23
2023-03-31T10:11:32.055Z,23.17
2023-03-31T10:14:06.422Z,23.65
2023-03-31T10:16:56.507Z,24.48
2023-03-31T10:19:28.517Z,25.80
2023-03-31T10:22:09.590Z,26.35
2023-03-31T10:24:40.932Z,27.88
2023-03-31T10:27:30.911Z,30.98
2023-03-31T10:30:03.745Z,30.70
2023-03-31T10:32:42.445Z,34.20
2023-03-31T10:35:32.259Z,38.42
2023-03-31T10:38:08.878Z,42.95
2023-03-31T10:40:39.809Z,44.72
2023-03-31T10:43:28.233Z,46.40
2023-03-31T10:45:59.569Z,42.97
2023-03-31T10:48:34.840Z,39.53
2023-03-31T10:51:14.830Z,34.78
2023-03-31T10:53:46.875Z,33.75
2023-03-31T10:56:37.053Z,34.58
2023-03-31T10:59:27.014Z,37.65
2023-03-31T11:02:17.074Z,36.17
2023-03-31T11:05:07.289Z,36.72
2023-03-31T11:07:57.920Z,37.75
2023-03-31T11:10:47.824Z,39.90
2023-03-31T11:13:37.982Z,38.17
2023-03-31T11:16:18.218Z,34.05
2023-03-31T11:18:54.724Z,34.03
2023-03-31T11:21:36.464Z,32.70
2023-03-31T11:24:26.121Z,34.35
2023-03-31T11:27:16.184Z,34.60
2023-03-31T11:30:05.962Z,36.47
2023-03-31T11:32:56.007Z,40.83
2023-03-31T11:35:46.974Z,30.98
2023-03-31T11:38:37.469Z,31.13
2023-03-31T11:41:17.284Z,32.05
2023-03-31T11:43:52.901Z,45.28
2023-03-31T11:46:25.699Z,43.47
2023-03-31T11:49:00.728Z,42.35
2023-03-31T11:51:45.352Z,38.75
2023-03-31T11:54:35.117Z,35.17
2023-03-31T11:57:07.754Z,34.75
2023-03-31T11:59:38.346Z,33.03
2023-03-31T12:02:28.393Z,41.67
2023-03-31T12:04:59.346Z,44.92
2023-03-31T12:07:46.573Z,38.50
2023-03-31T12:10:22.728Z,36.63
2023-03-31T12:13:00.148Z,39.35
2023-03-31T12:15:37.341Z,38.88
2023-03-31T12:18:27.437Z,44.40
2023-03-31T12:21:02.683Z,45.97
2023-03-31T12:23:36.067Z,52.20
2023-03-31T12:26:14.397Z,40.33
2023-03-31T12:28:46.215Z,36.42
2023-03-31T12:31:25.771Z,33.45
2023-03-31T12:34:04.856Z,31.58
2023-03-31T12:36:49.417Z,31.08
2023-03-31T12:39:31.740Z,30.95
2023-03-31T12:42:23.456Z,33.65
2023-03-31T12:45:14.763Z,32.63
2023-03-31T12:48:04.844Z,36.00
2023-03-31T12:50:53.053Z,36.33
2023-03-31T12:53:38.245Z,33.70
2023-03-31T12:56:08.695Z,35.03
2023-03-31T12:58:44.920Z,35.83
2023-03-31T13:01:34.855Z,34.58
2023-03-31T13:04:20.643Z,36.08
2023-03-31T13:06:56.001Z,32.70
2023-03-31T13:09:44.229Z,31.20
2023-03-31T13:12:17.373Z,33.85
2023-03-31T13:14:49.270Z,34.33
2023-03-31T13:17:33.314Z,36.10
2023-03-31T13:20:23.255Z,37.15
2023-03-31T13:23:02.280Z,35.80
2023-03-31T13:25:42.115Z,36.85
2023-03-31T13:28:16.945Z,36.78
2023-03-31T13:30:47.739Z,37.78
2023-03-31T13:33:21.981Z,36.20
2023-03-31T13:36:11.908Z,38.17
2023-03-31T13:39:01.988Z,38.17
2023-03-31T13:41:52.074Z,41.08
2023-03-31T13:44:41.773Z,39.97
2023-03-31T13:47:32.399Z,43.45
2023-03-31T13:50:13.774Z,46.05
2023-03-31T13:53:04.262Z,46.95
2023-03-31T13:55:43.882Z,46.95
2023-03-31T13:58:34.265Z,49.28
2023-03-31T14:01:25.130Z,46.78
2023-03-31T14:04:15.475Z,46.45
2023-03-31T14:07:05.081Z,45.70
2023-03-31T14:09:37.080Z,45.13
2023-03-31T14:12:29.030Z,46.00
2023-03-31T14:14:59.474Z,45.70
2023-03-31T14:17:34.067Z,45.30
2023-03-31T14:20:12.239Z,46.22
2023-03-31T14:23:03.212Z,44.25
2023-03-31T14:25:44.404Z,44.05
2023-03-31T14:28:26.629Z,44.65
2023-03-31T14:31:21.873Z,45.45
2023-03-31T14:34:12.665Z,51.17
2023-03-31T14:37:02.531Z,53.53
2023-03-31T14:39:38.307Z,49.58
2023-03-31T14:42:13.558Z,48.03
2023-03-31T14:44:48.757Z,42.47
2023-03-31T14:47:30.138Z,41.90
2023-03-31T14:50:06.399Z,38.70
2023-03-31T14:52:39.715Z,35.42
2023-03-31T14:55:10.195Z,36.67
2023-03-31T14:57:43.535Z,34.60
2023-03-31T15:00:33.411Z,35.08
2023-03-31T15:03:05.629Z,38.92
2023-03-31T15:05:37.481Z,32.70
2023-03-31T15:08:09.278Z,33.25
2023-03-31T15:10:40.922Z,32.30
2023-03-31T15:13:18.620Z,34.25
2023-03-31T15:15:49.083Z,33.42
2023-03-31T15:18:19.542Z,33.10
2023-03-31T15:20:50.004Z,32.35
2023-03-31T15:23:29.006Z,33.58
2023-03-31T15:26:05.218Z,32.67
2023-03-31T15:28:39.753Z,32.22
2023-03-31T15:31:10.807Z,32.22
2023-03-31T15:33:45.983Z,32.05
2023-03-31T15:36:17.637Z,30.23
2023-03-31T15:38:47.991Z,29.55
2023-03-31T15:41:19.881Z,29.10
2023-03-31T15:43:54.475Z,31.08
2023-03-31T15:46:28.730Z,32.22
2023-03-31T15:48:59.189Z,32.67
2023-03-31T15:51:38.478Z,32.28
2023-03-31T15:54:28.465Z,51.97
2023-03-31T15:57:08.819Z,31.35
2023-03-31T15:59:55.738Z,30.23
2023-03-31T16:02:28.968Z,30.35
2023-03-31T16:05:01.587Z,29.63
2023-03-31T16:07:38.564Z,28.88
2023-03-31T16:10:28.785Z,29.92
2023-03-31T16:13:02.292Z,29.85
2023-03-31T16:15:34.210Z,29.75
2023-03-31T16:18:10.144Z,29.67
2023-03-31T16:20:44.491Z,30.42
2023-03-31T16:23:28.981Z,31.38
2023-03-31T16:25:59.473Z,33.20
2023-03-31T16:28:31.428Z,42.22
2023-03-31T16:31:03.529Z,42.25
2023-03-31T16:33:34.656Z,39.58
2023-03-31T16:36:05.572Z,38.42
2023-03-31T16:38:36.387Z,33.75
2023-03-31T16:41:08.836Z,34.40
2023-03-31T16:43:39.297Z,33.70
2023-03-31T16:46:09.346Z,35.28
2023-03-31T16:48:39.536Z,34.33
2023-03-31T16:51:10.004Z,30.52
2023-03-31T16:53:41.008Z,35.78
2023-03-31T16:56:11.535Z,36.03
2023-03-31T16:58:42.393Z,37.95
2023-03-31T17:01:12.965Z,38.28
2023-03-31T17:03:44.366Z,36.28
2023-03-31T17:06:15.412Z,36.85
2023-03-31T17:08:45.505Z,38.28
2023-03-31T17:11:16.114Z,37.60
2023-03-31T17:13:46.991Z,36.95
2023-03-31T17:19:07.536Z,35.88
2023-03-31T17:21:38.991Z,33.78
2023-03-31T17:24:10.093Z,33.05
2023-03-31T17:26:41.100Z,31.08
2023-03-31T17:29:14.580Z,31.90
2023-03-31T17:31:45.751Z,57.92
2023-03-31T17:34:16.181Z,35.13
2023-03-31T17:36:46.449Z,32.67
2023-03-31T17:39:17.457Z,32.30
2023-03-31T17:41:47.765Z,31.75
2023-03-31T17:44:18.058Z,32.63
2023-03-31T17:46:48.426Z,31.73
2023-03-31T17:49:19.173Z,31.73
2023-03-31T17:51:49.298Z,31.77
2023-03-31T17:54:19.997Z,33.88
2023-03-31T17:56:54.339Z,33.13
2023-03-31T17:59:25.605Z,32.33
2023-03-31T18:01:56.756Z,31.58
2023-03-31T18:04:27.415Z,33.33
2023-03-31T18:06:57.978Z,32.65
2023-03-31T18:09:28.084Z,34.08
2023-03-31T18:11:59.919Z,33.72
2023-03-31T18:14:30.090Z,35.53
2023-03-31T18:17:00.249Z,46.42
2023-03-31T18:19:31.466Z,36.17
2023-03-31T18:22:01.882Z,34.50
2023-03-31T18:24:33.918Z,34.65
2023-03-31T18:27:04.501Z,39.28
2023-03-31T18:29:34.928Z,32.20
2023-03-31T18:32:05.859Z,31.05
2023-03-31T18:34:38.221Z,32.22
2023-03-31T18:37:08.725Z,29.75
2023-03-31T18:39:39.350Z,30.27
2023-03-31T18:42:10.670Z,29.80
2023-03-31T18:44:41.414Z,28.85
2023-03-31T18:47:11.592Z,27.60
2023-03-31T18:49:41.927Z,28.77
2023-03-31T18:52:12.387Z,27.95
2023-03-31T18:54:43.135Z,26.15
2023-03-31T18:57:13.331Z,25.92
2023-03-31T18:59:43.963Z,23.80
2023-03-31T19:02:20.510Z,24.58
2023-03-31T19:04:51.372Z,23.20
2023-03-31T19:07:21.530Z,23.33
2023-03-31T19:09:51.675Z,23.05
2023-03-31T19:12:22.782Z,23.33
2023-03-31T19:14:54.096Z,22.50
2023-03-31T19:17:24.979Z,23.17
2023-03-31T19:19:55.439Z,21.23
2023-03-31T19:22:29.152Z,21.90
2023-03-31T19:24:59.921Z,21.35
2023-03-31T19:27:30.152Z,22.00
2023-03-31T19:30:00.625Z,22.65
2023-03-31T19:32:31.134Z,21.83
2023-03-31T19:35:01.049Z,20.70
2023-03-31T19:37:31.513Z,20.20
2023-03-31T19:40:02.025Z,20.17
2023-03-31T19:42:32.408Z,20.80
2023-03-31T19:45:02.653Z,19.52
2023-03-31T19:47:33.670Z,20.73
2023-03-31T19:50:03.947Z,19.85
2023-03-31T19:52:34.248Z,20.75
2023-03-31T19:55:04.449Z,20.52
2023-03-31T19:57:34.748Z,20.73
2023-03-31T20:00:05.465Z,21.25
2023-03-31T20:02:36.423Z,20.52
2023-03-31T20:05:07.243Z,22.45
2023-03-31T20:07:37.395Z,21.23
2023-03-31T20:10:08.363Z,22.15
2023-03-31T20:12:38.759Z,21.38
2023-03-31T20:15:10.226Z,21.23
2023-03-31T20:17:40.694Z,22.40
2023-03-31T20:20:11.749Z,22.10
2023-03-31T20:22:42.896Z,21.67
2023-03-31T20:25:13.237Z,22.17
2023-03-31T20:27:43.789Z,23.08
2023-03-31T20:30:14.868Z,22.60
2023-03-31T20:32:45.680Z,22.15
2023-03-31T20:35:16.839Z,21.13
2023-03-31T20:37:47.657Z,22.02
2023-03-31T20:40:18.329Z,21.70
2023-03-31T20:42:48.508Z,21.48
2023-03-31T20:45:18.662Z,23.13
2023-03-31T20:47:49.258Z,22.40
2023-03-31T20:50:19.720Z,21.98
2023-03-31T20:52:50.733Z,21.52
2023-03-31T20:55:21.073Z,22.67
2023-03-31T20:57:51.144Z,22.85
2023-03-31T21:00:21.327Z,22.77
2023-03-31T21:02:51.539Z,23.30
2023-03-31T21:05:22.150Z,23.42
2023-03-31T21:07:52.351Z,22.30
2023-03-31T21:10:22.961Z,22.15
2023-03-31T21:12:54.233Z,21.50
2023-03-31T21:15:24.719Z,21.50
2023-03-31T21:17:54.880Z,22.52
2023-03-31T21:20:25.029Z,20.80
2023-03-31T21:22:55.440Z,21.20
2023-03-31T21:25:27.569Z,21.60
2023-03-31T21:27:57.761Z,21.58
2023-03-31T21:30:28.220Z,22.13
2023-03-31T21:32:58.358Z,21.90
2023-03-31T21:35:28.724Z,22.33
2023-03-31T21:37:59.210Z,22.02
2023-03-31T21:40:29.789Z,22.00
2023-03-31T21:43:00.148Z,22.65
2023-03-31T21:45:31.391Z,23.48
2023-03-31T21:48:02.132Z,22.63
2023-03-31T21:50:32.762Z,22.95
2023-03-31T21:53:06.297Z,22.25
2023-03-31T21:55:38.833Z,22.83
2023-03-31T21:58:09.053Z,22.38
2023-03-31T22:00:39.308Z,22.42
2023-03-31T22:03:25.886Z,22.52
2023-03-31T22:06:01.660Z,22.30
2023-03-31T22:08:33.121Z,22.77
2023-03-31T22:11:03.849Z,22.90
2023-03-31T22:13:34.615Z,21.85
2023-03-31T22:16:05.155Z,21.73
2023-03-31T22:18:35.794Z,22.45
2023-03-31T22:21:07.948Z,22.27
2023-03-31T22:23:38.360Z,21.02
2023-03-31T22:26:08.483Z,21.95
2023-03-31T22:28:38.966Z,22.65
2023-03-31T22:31:09.751Z,22.52
2023-03-31T22:33:40.239Z,22.65
2023-03-31T22:36:10.874Z,22.58
2023-03-31T22:38:41.527Z,23.20
2023-03-31T22:41:12.244Z,21.90
2023-03-31T22:43:45.295Z,23.77
2023-03-31T22:46:17.529Z,22.17
2023-03-31T22:48:51.083Z,22.23
2023-03-31T22:51:21.479Z,23.20
2023-03-31T22:53:53.078Z,22.98
2023-03-31T22:56:24.624Z,23.75
2023-03-31T22:58:55.630Z,23.63
2023-03-31T23:01:25.892Z,23.60
2023-03-31T23:03:57.303Z,23.60
2023-03-31T23:06:28.172Z,23.83
2023-03-31T23:08:58.908Z,23.58
2023-03-31T23:11:29.078Z,22.70
2023-03-31T23:13:59.483Z,25.17
2023-03-31T23:16:29.607Z,29.67
2023-03-31T23:19:00.207Z,32.83
2023-03-31T23:21:31.034Z,29.75
2023-03-31T23:24:03.168Z,32.05
2023-03-31T23:26:34.061Z,28.67
2023-03-31T23:29:04.883Z,26.10
2023-03-31T23:31:35.561Z,23.77
2023-03-31T23:34:06.069Z,22.67
2023-03-31T23:36:36.193Z,21.13
2023-03-31T23:39:08.312Z,22.85
2023-03-31T23:41:38.724Z,24.02
2023-03-31T23:44:09.147Z,26.10
2023-03-31T23:46:40.970Z,24.65
2023-03-31T23:49:11.585Z,23.33
2023-03-31T23:51:42.413Z,28.40
2023-03-31T23:54:13.878Z,28.00
2023-03-31T23:56:44.409Z,25.48
2023-03-31T23:59:14.920Z,24.10
